Terminal Aerodrome Forecast
Issued by NWS Topeka, KS

Home | Current Version | Previous Version | Graphics & Text | Print | Product List | Glossary On
Versions: 1 2 3 4 5 6 7 8 9 10 11
000
FTUS43 KTOP 230500
TAFTOP
TAF
KTOP 230529Z 2306/2406 26007KT P6SM SCT070
     FM231700 31011KT P6SM BKN020
     FM240000 33014G21KT 4SM -RASN BR OVC012=

USA.gov is the U.S. government's official web portal to all federal, state and local government web resources and services.